首页
METAR-TAF:

METAR-TAF

机场 :

圣加仑, 瑞士

纬度: 47-29-06N, 经度: 009-33-43E, 海拔: 398米

当前天气观测

该预报发布于19分钟前的16:50 UTC
风速2节,风向多变
温度 0°C
湿度 100%
气压 1023 hPa
能見度: 0500

METAR: LSZR 241650Z VRB02KT 0500 R10/0800D FG VV002 00/M00 Q1023 NOSIG RMK O

时间: 18:09 (17:09 UTC)

预报

该预报发布于2小时和44分钟前的14:25 UTC
预报有效从24日的 15点(UTC)到 24日的 24点(UTC)
风速3节,风向多变
能見度: 3500
阴天层高于300英尺
轻雾
几率 40%
从 24日的 15点(UTC)到 24日的 21点(UTC)
能見度: 6000
少量云层高于800英尺

TAF: LSZR 241425Z 2415/2424 VRB03KT 3500 BR OVC003 PROB40 2415/2421 6000 NSW FEW008

超过4000个机场的气象观测和天气预报(METAR&TAF报告)。

可查询的气象台以黄色和红色小点在地图上表示。

将鼠标移到小点上方,可查看气象台名称。

然后点击查看天气观测和预报。

如需切换地图:点击带黑十字的绿色按钮放大地图;点击带横线的绿色按钮缩小地图;或者点击绿色箭头查看邻近地区的地图。


METAR-TAF: